Pagina principală
METAR-TAF:

METAR-TAF

Aeroporturi :

Gove Peninsula, Australia

Latitudine: 12-16-12S, longitudine: 136-49-06E, elevație: 62 m

Observații meteo curente

Raportul a fost făcut în urmă cu 2 ore și 8 de minute, la 00:30 UTC
Vânt 10 kt de la Nord/Nord-vest
Temperatură 31°C
Umiditate 63%
Presiune 1009 hPa
Vizibilitate de 10 km sau mai mult

METAR: YPGV 100030Z AUTO 34010KT 9999 // NCD 31/23 Q1009 RF00.0/000.0

Ora: 12:08 (02:38 UTC)

Prognoză

Raportul a fost făcut în urmă cu 1 oră și 55 de minute, la 00:43 UTC
Prognoză valabilă de la 10 ora 02 UTC la 10 ora 14 UTC
Vânt 10 kt de la Nord
Vizibilitate de 10 km sau mai mult
nu există nori sub 1.500 m și nici cumulonimbus

TAF: YPGV 100043Z 1002/1014 01010KT CAVOK

Observații și prognoze meteo pentru peste 4.000 de aeroporturi (rapoarte METAR și TAF).

Stațiile disponibile sunt reprezentate pe hartă prin puncte galbene și roșii.

Țineți indicatorul mouse-ului pe punctul dorit pentru a vedea denumirea stației.

Apoi, faceți clic pentru a vedea observațiile și prognozele meteorologice.

Pentru a schimba harta: Pentru mărire, faceți clic pe butoanele verzi cu cruce neagră; pentru micșorare, pe butonul verde cu o liniuță; pentru hărți învecinate, pe săgețile verzi.


METAR-TAF: